Time;durP1;ratioP1;P1;durP2;ratioP2;P2;SDS_P1;SDS_P2;PMS_P1;PMS_P2;Temp;Humidity;BMP_temperature;BMP_pressure;BME280_temperature;BME280_humidity;BME280_pressure;Samples;Min_cycle;Max_cycle;Signal;HPM_P1;HPM_P2
2022/05/09 00:01:20;;;;;;;11.53;9.33;;;;;;;;;;5074913;28;20441;-65
2022/05/09 00:03:46;;;;;;;10.20;8.90;;;;;;;;;;5074787;28;20412;-64
2022/05/09 00:06:12;;;;;;;10.37;9.10;;;;;;;;;;5074492;28;20420;-64
2022/05/09 00:08:39;;;;;;;11.53;9.23;;;;;;;;;;5074762;28;20510;-66
2022/05/09 00:11:06;;;;;;;9.90;8.90;;;;;;;;;;5074695;28;20419;-67
2022/05/09 00:13:32;;;;;;;11.10;9.90;;;;;;;;;;5056846;28;20510;-65
2022/05/09 00:15:58;;;;;;;9.57;8.57;;;;;;;;;;5074518;28;20522;-65
2022/05/09 00:18:24;;;;;;;9.43;8.53;;;;;;;;;;5074432;28;20405;-64
2022/05/09 00:20:49;;;;;;;10.23;9.17;;;;;;;;;;5074489;28;20405;-65
2022/05/09 00:23:16;;;;;;;11.73;9.40;;;;;;;;;;5074517;28;20400;-69
2022/05/09 00:25:42;;;;;;;10.23;9.03;;;;;;;;;;5074320;28;20491;-63
2022/05/09 00:28:08;;;;;;;10.83;8.80;;;;;;;;;;5074228;28;20424;-63
2022/05/09 00:30:34;;;;;;;10.47;9.40;;;;;;;;;;5074239;28;20404;-63
2022/05/09 00:33:00;;;;;;;10.20;9.10;;;;;;;;;;5056347;28;20832;-64
2022/05/09 00:35:26;;;;;;;10.80;8.80;;;;;;;;;;5073966;28;20488;-65
2022/05/09 00:37:52;;;;;;;10.90;9.50;;;;;;;;;;5073982;28;20448;-65
2022/05/09 00:40:18;;;;;;;9.13;7.93;;;;;;;;;;5074078;28;20500;-66
2022/05/09 00:42:45;;;;;;;10.33;8.83;;;;;;;;;;5074071;28;20397;-65
2022/05/09 00:45:13;;;;;;;10.83;9.13;;;;;;;;;;5073499;28;20508;-66
2022/05/09 00:47:39;;;;;;;9.07;8.17;;;;;;;;;;5056008;28;20507;-66
2022/05/09 00:50:06;;;;;;;9.60;8.60;;;;;;;;;;5073915;28;20500;-68
2022/05/09 00:52:32;;;;;;;10.50;9.10;;;;;;;;;;5073842;28;20412;-64
2022/05/09 00:55:11;;;;;;;9.90;8.87;;;;;;;;;;5073692;28;20472;-64
2022/05/09 00:57:41;;;;;;;11.40;8.33;;;;;;;;;;5073686;28;20432;-66
2022/05/09 01:00:09;;;;;;;10.87;9.23;;;;;;;;;;5073634;28;20517;-64
2022/05/09 01:02:35;;;;;;;13.40;10.83;;;;;;;;;;5073623;28;20445;-65
2022/05/09 01:05:01;;;;;;;10.43;9.33;;;;;;;;;;5073608;28;20424;-64
2022/05/09 01:07:28;;;;;;;10.13;9.10;;;;;;;;;;5073319;28;20463;-63
2022/05/09 01:09:54;;;;;;;10.67;8.87;;;;;;;;;;5073476;28;20405;-65
2022/05/09 01:12:22;;;;;;;11.77;9.37;;;;;;;;;;5073540;28;20491;-64
2022/05/09 01:14:49;;;;;;;11.37;8.43;;;;;;;;;;5073502;28;20458;-64
2022/05/09 01:17:16;;;;;;;12.47;10.97;;;;;;;;;;5073348;28;20466;-64
2022/05/09 01:19:44;;;;;;;11.87;9.50;;;;;;;;;;5073438;28;20393;-67
2022/05/09 01:22:22;;;;;;;10.60;9.50;;;;;;;;;;5073373;28;20421;-66
2022/05/09 01:24:48;;;;;;;11.97;9.43;;;;;;;;;;5055544;28;20982;-64
2022/05/09 01:27:14;;;;;;;10.60;9.20;;;;;;;;;;5073294;28;20409;-67
2022/05/09 01:30:01;;;;;;;11.60;8.83;;;;;;;;;;5073196;28;20433;-64
2022/05/09 01:32:32;;;;;;;10.20;9.20;;;;;;;;;;5032352;28;20413;-68
2022/05/09 01:35:08;;;;;;;11.77;9.67;;;;;;;;;;5073240;28;20463;-64
2022/05/09 01:37:35;;;;;;;10.77;9.67;;;;;;;;;;5073174;28;20447;-65
2022/05/09 01:40:01;;;;;;;10.63;8.87;;;;;;;;;;5073248;28;20508;-64
2022/05/09 01:42:27;;;;;;;12.20;9.60;;;;;;;;;;5073165;28;20415;-65
2022/05/09 01:44:53;;;;;;;10.63;9.10;;;;;;;;;;5073195;28;20491;-66
2022/05/09 01:50:24;;;;;;;9.70;8.13;;;;;;;;;;5011362;28;20407;-64
2022/05/09 01:52:50;;;;;;;10.03;8.43;;;;;;;;;;5011408;28;20416;-64
2022/05/09 01:55:16;;;;;;;10.93;9.10;;;;;;;;;;5040238;28;20978;-64
2022/05/09 01:57:42;;;;;;;11.50;9.80;;;;;;;;;;5075769;28;20408;-63
2022/05/09 02:00:09;;;;;;;10.83;9.37;;;;;;;;;;5077045;28;20417;-64
2022/05/09 02:02:36;;;;;;;10.50;9.40;;;;;;;;;;5077129;28;20407;-64
2022/05/09 02:05:02;;;;;;;11.40;9.50;;;;;;;;;;5077053;28;20423;-64
2022/05/09 02:07:29;;;;;;;12.17;9.83;;;;;;;;;;5076923;28;21029;-64
2022/05/09 02:09:55;;;;;;;10.53;9.10;;;;;;;;;;5077011;28;20409;-64
2022/05/09 02:12:21;;;;;;;10.10;9.10;;;;;;;;;;5077054;28;20404;-64
2022/05/09 02:14:48;;;;;;;12.90;9.97;;;;;;;;;;5058616;28;20464;-64
2022/05/09 02:17:14;;;;;;;12.13;9.63;;;;;;;;;;5059002;28;20482;-65
2022/05/09 02:19:41;;;;;;;10.33;9.30;;;;;;;;;;5076782;28;20415;-64
2022/05/09 02:22:08;;;;;;;12.03;9.17;;;;;;;;;;5076719;28;21041;-63
2022/05/09 02:24:34;;;;;;;12.47;10.47;;;;;;;;;;5076793;28;20408;-64
2022/05/09 02:27:01;;;;;;;11.20;9.90;;;;;;;;;;5076546;28;20419;-64
2022/05/09 02:29:28;;;;;;;10.50;9.40;;;;;;;;;;5076537;28;20428;-64
2022/05/09 02:31:55;;;;;;;12.57;10.30;;;;;;;;;;5076565;28;20413;-64
2022/05/09 02:34:22;;;;;;;11.57;9.30;;;;;;;;;;5076411;28;20499;-64
2022/05/09 02:36:48;;;;;;;11.50;9.77;;;;;;;;;;5076334;28;20416;-64
2022/05/09 02:39:14;;;;;;;12.00;9.17;;;;;;;;;;5076466;28;20412;-63
2022/05/09 02:41:41;;;;;;;10.23;8.90;;;;;;;;;;5076307;28;20477;-64
2022/05/09 02:44:07;;;;;;;12.10;10.17;;;;;;;;;;5076333;28;20940;-64
2022/05/09 02:46:33;;;;;;;11.43;10.23;;;;;;;;;;5076234;28;20408;-64
2022/05/09 02:49:00;;;;;;;15.57;10.07;;;;;;;;;;5076291;28;20465;-64
2022/05/09 02:51:27;;;;;;;11.13;9.90;;;;;;;;;;5076068;28;20926;-64
2022/05/09 02:53:54;;;;;;;11.73;9.60;;;;;;;;;;5076218;28;20413;-64
2022/05/09 02:56:21;;;;;;;11.60;8.80;;;;;;;;;;5075931;28;20460;-63
2022/05/09 02:58:47;;;;;;;11.57;9.90;;;;;;;;;;5075883;28;20428;-64
2022/05/09 03:01:13;;;;;;;13.20;10.13;;;;;;;;;;5076004;28;20496;-64
2022/05/09 03:06:24;;;;;;;10.60;9.03;;;;;;;;;;5075776;28;20494;-64
2022/05/09 03:08:50;;;;;;;11.50;10.30;;;;;;;;;;5075638;28;20413;-64
2022/05/09 03:11:16;;;;;;;11.27;10.07;;;;;;;;;;5075853;28;20760;-64
2022/05/09 03:13:42;;;;;;;10.20;9.07;;;;;;;;;;5075844;28;20400;-64
2022/05/09 03:16:09;;;;;;;11.20;10.10;;;;;;;;;;5075461;28;20475;-64
2022/05/09 03:18:36;;;;;;;10.57;9.03;;;;;;;;;;5075804;28;20474;-64
2022/05/09 03:21:02;;;;;;;10.97;9.63;;;;;;;;;;5075716;28;20412;-64
2022/05/09 03:23:28;;;;;;;13.07;10.70;;;;;;;;;;5075612;28;20405;-64
2022/05/09 03:25:55;;;;;;;14.00;10.93;;;;;;;;;;5057620;28;20559;-64
2022/05/09 03:28:26;;;;;;;11.50;10.30;;;;;;;;;;5075545;28;20482;-64
2022/05/09 03:30:53;;;;;;;12.73;10.97;;;;;;;;;;5075616;28;20407;-64
2022/05/09 03:33:20;;;;;;;11.40;10.00;;;;;;;;;;5057400;28;20400;-64
2022/05/09 03:35:46;;;;;;;12.10;10.80;;;;;;;;;;5075181;28;20496;-64
2022/05/09 03:38:12;;;;;;;12.87;11.47;;;;;;;;;;5075369;28;20408;-65
2022/05/09 03:40:39;;;;;;;11.93;9.73;;;;;;;;;;5075406;28;20458;-64
2022/05/09 03:43:06;;;;;;;13.40;10.30;;;;;;;;;;5075182;28;20899;-66
2022/05/09 03:45:32;;;;;;;14.57;10.37;;;;;;;;;;5075124;28;20416;-65
2022/05/09 03:47:59;;;;;;;12.77;10.70;;;;;;;;;;5075212;28;21021;-63
2022/05/09 03:50:27;;;;;;;13.10;10.80;;;;;;;;;;5075208;28;20872;-65
2022/05/09 03:52:53;;;;;;;12.03;10.10;;;;;;;;;;5075209;28;20468;-64
2022/05/09 03:55:19;;;;;;;11.97;10.67;;;;;;;;;;5074851;28;20471;-64
2022/05/09 03:57:49;;;;;;;12.27;10.67;;;;;;;;;;5056944;28;20555;-64
2022/05/09 04:00:16;;;;;;;13.20;11.10;;;;;;;;;;5074950;28;20487;-65
2022/05/09 04:02:43;;;;;;;13.80;10.57;;;;;;;;;;5074869;28;20436;-64
2022/05/09 04:05:15;;;;;;;12.40;10.03;;;;;;;;;;5074772;28;20462;-65
2022/05/09 04:07:41;;;;;;;11.40;10.30;;;;;;;;;;5082027;28;20487;-65
2022/05/09 04:10:09;;;;;;;15.00;11.20;;;;;;;;;;5093785;28;20423;-64
2022/05/09 04:12:35;;;;;;;13.67;11.23;;;;;;;;;;5094885;28;20404;-66
2022/05/09 04:17:46;;;;;;;14.00;10.67;;;;;;;;;;5095076;28;20435;-64
2022/05/09 04:20:12;;;;;;;12.10;10.47;;;;;;;;;;5094177;28;20404;-65
2022/05/09 04:22:40;;;;;;;13.80;10.30;;;;;;;;;;5094878;28;20525;-66
2022/05/09 04:25:06;;;;;;;11.33;10.13;;;;;;;;;;5094594;28;20411;-63
2022/05/09 04:27:33;;;;;;;15.47;10.57;;;;;;;;;;5094566;28;20404;-65
2022/05/09 04:29:59;;;;;;;11.00;9.90;;;;;;;;;;5094395;28;20786;-66
2022/05/09 04:32:25;;;;;;;11.80;10.13;;;;;;;;;;5094595;28;20411;-66
2022/05/09 04:34:51;;;;;;;10.73;9.63;;;;;;;;;;5094350;28;20516;-68
2022/05/09 04:37:16;;;;;;;12.67;10.27;;;;;;;;;;5094402;28;20940;-66
2022/05/09 04:39:42;;;;;;;11.43;10.17;;;;;;;;;;5094432;28;20439;-65
2022/05/09 04:42:09;;;;;;;11.80;10.50;;;;;;;;;;5094407;28;20408;-65
2022/05/09 04:44:35;;;;;;;12.10;10.70;;;;;;;;;;5094275;28;20909;-66
2022/05/09 04:47:01;;;;;;;12.40;10.43;;;;;;;;;;5094232;28;20488;-65
2022/05/09 04:49:27;;;;;;;10.80;9.70;;;;;;;;;;5094254;28;20812;-67
2022/05/09 04:51:53;;;;;;;13.87;10.67;;;;;;;;;;5094184;28;20515;-68
2022/05/09 04:54:19;;;;;;;14.00;10.70;;;;;;;;;;5094213;28;20517;-63
2022/05/09 04:56:45;;;;;;;11.70;10.27;;;;;;;;;;5093810;28;20475;-62
2022/05/09 04:59:11;;;;;;;12.60;10.63;;;;;;;;;;5094033;28;20452;-63
2022/05/09 05:01:37;;;;;;;12.30;11.00;;;;;;;;;;5093959;28;20435;-64
2022/05/09 05:04:05;;;;;;;13.33;11.33;;;;;;;;;;5092733;28;20474;-64
2022/05/09 05:06:31;;;;;;;12.73;10.50;;;;;;;;;;5088935;28;20445;-64
2022/05/09 05:08:57;;;;;;;14.10;10.87;;;;;;;;;;5073484;28;20427;-64
2022/05/09 05:11:23;;;;;;;12.53;10.53;;;;;;;;;;5073552;28;20507;-64
2022/05/09 05:13:49;;;;;;;15.60;12.43;;;;;;;;;;5055484;28;20786;-63
2022/05/09 05:16:15;;;;;;;14.70;12.20;;;;;;;;;;5073166;28;20475;-63
2022/05/09 05:18:43;;;;;;;13.50;11.13;;;;;;;;;;5073487;28;20814;-65
2022/05/09 05:21:10;;;;;;;11.70;10.50;;;;;;;;;;5073300;28;20448;-63
2022/05/09 05:23:38;;;;;;;13.37;11.27;;;;;;;;;;5073435;28;20401;-64
2022/05/09 05:26:04;;;;;;;15.57;11.37;;;;;;;;;;5073230;28;20428;-67
2022/05/09 05:28:32;;;;;;;14.80;12.20;;;;;;;;;;5073190;28;20433;-63
2022/05/09 05:31:10;;;;;;;15.00;11.87;;;;;;;;;;5073239;28;20417;-63
2022/05/09 05:33:36;;;;;;;14.20;12.70;;;;;;;;;;5073341;28;20408;-64
2022/05/09 05:36:02;;;;;;;15.03;12.00;;;;;;;;;;5072959;28;20474;-64
2022/05/09 05:38:28;;;;;;;13.93;12.47;;;;;;;;;;5073060;28;20432;-64
2022/05/09 05:40:57;;;;;;;14.80;11.67;;;;;;;;;;5073002;28;20408;-62
2022/05/09 05:43:23;;;;;;;16.30;12.57;;;;;;;;;;5072929;28;20448;-64
2022/05/09 05:45:54;;;;;;;15.70;12.43;;;;;;;;;;5072847;28;20444;-65
2022/05/09 05:48:20;;;;;;;14.03;12.23;;;;;;;;;;5072967;28;20412;-64
2022/05/09 05:50:46;;;;;;;17.87;12.37;;;;;;;;;;5072719;28;20507;-62
2022/05/09 05:53:12;;;;;;;18.17;13.10;;;;;;;;;;5072965;28;20902;-62
2022/05/09 05:55:38;;;;;;;14.33;12.43;;;;;;;;;;5054473;28;20471;-64
2022/05/09 05:58:04;;;;;;;14.23;12.67;;;;;;;;;;5072872;28;20451;-67
2022/05/09 06:00:30;;;;;;;16.20;12.77;;;;;;;;;;5072847;28;20500;-64
2022/05/09 06:02:56;;;;;;;16.30;12.30;;;;;;;;;;5072803;28;20488;-65
2022/05/09 06:05:22;;;;;;;16.43;12.47;;;;;;;;;;5072745;28;20455;-62
2022/05/09 06:07:52;;;;;;;15.33;13.20;;;;;;;;;;5072625;28;20463;-63
2022/05/09 06:10:18;;;;;;;24.73;14.17;;;;;;;;;;5072702;28;20423;-64
2022/05/09 06:12:44;;;;;;;15.37;13.20;;;;;;;;;;5072910;28;20405;-70
2022/05/09 06:15:32;;;;;;;16.03;13.10;;;;;;;;;;5072515;28;20969;-62
2022/05/09 06:17:59;;;;;;;17.40;12.23;;;;;;;;;;5072744;28;20892;-65
2022/05/09 06:20:26;;;;;;;13.53;11.90;;;;;;;;;;5072599;28;20507;-63
2022/05/09 06:22:54;;;;;;;19.33;12.43;;;;;;;;;;5072710;28;20412;-62
2022/05/09 06:25:21;;;;;;;13.20;11.80;;;;;;;;;;5072607;28;20904;-62
2022/05/09 06:27:47;;;;;;;15.57;11.93;;;;;;;;;;5072663;28;20405;-63
2022/05/09 06:30:14;;;;;;;14.80;12.40;;;;;;;;;;5072535;28;20431;-62
2022/05/09 06:32:40;;;;;;;17.00;12.00;;;;;;;;;;5072572;28;20400;-62
2022/05/09 06:35:08;;;;;;;12.83;11.53;;;;;;;;;;5054503;28;20561;-63
2022/05/09 06:37:35;;;;;;;16.70;12.53;;;;;;;;;;5072610;28;20962;-62
2022/05/09 06:40:01;;;;;;;15.70;12.60;;;;;;;;;;5072538;28;20397;-63
2022/05/09 06:42:27;;;;;;;13.70;11.87;;;;;;;;;;5072988;28;20482;-63
2022/05/09 06:44:54;;;;;;;14.60;12.00;;;;;;;;;;5076087;28;20492;-62
2022/05/09 06:47:20;;;;;;;13.10;10.73;;;;;;;;;;5075926;28;20422;-62
2022/05/09 06:49:46;;;;;;;18.80;13.10;;;;;;;;;;5076036;28;20420;-62
2022/05/09 06:52:13;;;;;;;14.20;11.70;;;;;;;;;;5075925;28;20413;-62
2022/05/09 06:54:39;;;;;;;13.90;12.10;;;;;;;;;;5075777;28;20929;-63
2022/05/09 06:57:05;;;;;;;13.17;11.80;;;;;;;;;;5075901;28;20428;-63
2022/05/09 06:59:31;;;;;;;14.83;12.97;;;;;;;;;;5076061;28;20770;-63
2022/05/09 07:01:57;;;;;;;18.13;11.70;;;;;;;;;;5075887;28;20451;-66
2022/05/09 07:04:23;;;;;;;16.53;11.70;;;;;;;;;;5075760;28;20408;-63
2022/05/09 07:06:49;;;;;;;12.10;10.57;;;;;;;;;;5075559;28;20982;-63
2022/05/09 07:09:15;;;;;;;13.10;11.40;;;;;;;;;;5075767;28;20779;-63
2022/05/09 07:11:42;;;;;;;14.23;11.93;;;;;;;;;;5075771;28;20409;-66
2022/05/09 07:14:08;;;;;;;15.83;11.53;;;;;;;;;;5075701;28;20903;-62
2022/05/09 07:16:34;;;;;;;14.67;10.80;;;;;;;;;;5075637;28;20472;-70
2022/05/09 07:19:00;;;;;;;15.77;12.00;;;;;;;;;;5075525;28;20470;-63
2022/05/09 07:21:26;;;;;;;15.30;11.43;;;;;;;;;;5075585;28;20435;-63
2022/05/09 07:23:53;;;;;;;12.73;11.43;;;;;;;;;;5075344;28;20415;-67
2022/05/09 07:26:19;;;;;;;15.63;12.07;;;;;;;;;;5075498;28;20452;-66
2022/05/09 07:28:45;;;;;;;14.20;11.77;;;;;;;;;;5075461;28;20424;-64
2022/05/09 07:31:11;;;;;;;14.00;11.30;;;;;;;;;;5075317;28;20409;-64
2022/05/09 07:33:37;;;;;;;12.03;10.43;;;;;;;;;;5075287;28;20472;-65
2022/05/09 07:36:04;;;;;;;15.63;12.13;;;;;;;;;;5075095;28;20495;-65
2022/05/09 07:38:30;;;;;;;16.53;11.87;;;;;;;;;;5075313;28;20454;-62
2022/05/09 07:40:56;;;;;;;13.40;11.60;;;;;;;;;;5075195;28;20895;-63
2022/05/09 07:43:27;;;;;;;15.63;12.83;;;;;;;;;;5057155;28;20510;-63
2022/05/09 07:45:54;;;;;;;12.57;10.87;;;;;;;;;;5075180;28;20401;-65
2022/05/09 07:48:20;;;;;;;15.30;11.63;;;;;;;;;;5075119;28;20724;-62
2022/05/09 07:50:47;;;;;;;13.00;10.77;;;;;;;;;;5057067;28;20405;-65
2022/05/09 07:53:14;;;;;;;13.63;10.67;;;;;;;;;;5074977;28;20420;-63
2022/05/09 07:55:42;;;;;;;11.97;10.40;;;;;;;;;;5073574;28;20989;-65
2022/05/09 07:58:09;;;;;;;16.63;10.97;;;;;;;;;;5074757;28;20439;-64
2022/05/09 08:00:35;;;;;;;13.80;11.60;;;;;;;;;;5074788;28;20907;-64
2022/05/09 08:03:01;;;;;;;11.57;10.37;;;;;;;;;;5074732;28;20896;-66
2022/05/09 08:05:27;;;;;;;11.90;10.70;;;;;;;;;;5074619;28;20525;-63
2022/05/09 08:07:54;;;;;;;14.23;11.93;;;;;;;;;;5074367;28;20514;-62
2022/05/09 08:10:21;;;;;;;14.63;11.50;;;;;;;;;;5074631;28;20409;-62
2022/05/09 08:12:48;;;;;;;12.73;11.40;;;;;;;;;;5074475;28;20404;-64
2022/05/09 08:15:15;;;;;;;12.17;10.87;;;;;;;;;;5074276;28;20815;-66
2022/05/09 08:17:45;;;;;;;15.27;11.20;;;;;;;;;;5074508;28;20839;-65
2022/05/09 08:20:12;;;;;;;13.00;11.63;;;;;;;;;;5056569;28;20420;-63
2022/05/09 08:22:38;;;;;;;12.97;11.57;;;;;;;;;;5074508;28;20409;-66
2022/05/09 08:25:05;;;;;;;11.60;10.40;;;;;;;;;;5074332;28;20409;-65
2022/05/09 08:27:32;;;;;;;12.40;10.63;;;;;;;;;;5074232;28;20821;-65
2022/05/09 08:29:58;;;;;;;13.87;11.30;;;;;;;;;;5074270;28;20419;-64
2022/05/09 08:32:25;;;;;;;12.23;11.03;;;;;;;;;;5074059;28;20478;-69
2022/05/09 08:34:51;;;;;;;13.00;11.23;;;;;;;;;;5073911;28;20467;-66
2022/05/09 08:37:21;;;;;;;15.70;11.20;;;;;;;;;;5056064;28;20425;-69
2022/05/09 08:39:47;;;;;;;11.57;10.37;;;;;;;;;;5074078;28;20863;-70
2022/05/09 08:42:15;;;;;;;12.07;10.80;;;;;;;;;;5073952;28;20470;-66
2022/05/09 08:44:49;;;;;;;12.70;10.50;;;;;;;;;;5073920;28;20430;-70
2022/05/09 08:47:38;;;;;;;10.93;9.70;;;;;;;;;;5055890;28;20413;-66
2022/05/09 08:50:13;;;;;;;12.77;11.47;;;;;;;;;;5073965;28;20421;-62
2022/05/09 08:52:49;;;;;;;15.70;10.57;;;;;;;;;;5073739;28;20415;-62
2022/05/09 08:55:17;;;;;;;13.20;10.17;;;;;;;;;;5073544;28;20451;-62
2022/05/09 08:57:46;;;;;;;14.40;10.93;;;;;;;;;;5073568;28;20421;-62
2022/05/09 09:00:17;;;;;;;13.93;9.33;;;;;;;;;;5073652;28;20404;-63
2022/05/09 09:02:55;;;;;;;11.33;9.90;;;;;;;;;;5073530;28;20425;-68
2022/05/09 09:05:23;;;;;;;10.77;9.20;;;;;;;;;;5073348;28;20542;-62
2022/05/09 09:08:07;;;;;;;11.17;10.07;;;;;;;;;;5073313;28;20456;-63
2022/05/09 09:10:33;;;;;;;13.13;10.17;;;;;;;;;;5073402;28;20405;-63
2022/05/09 09:13:05;;;;;;;10.50;9.50;;;;;;;;;;5073565;28;20937;-62
2022/05/09 09:15:55;;;;;;;10.30;9.30;;;;;;;;;;5073062;28;20559;-63
2022/05/09 09:18:27;;;;;;;10.43;8.33;;;;;;;;;;5035921;28;20465;-62
2022/05/09 09:21:01;;;;;;;9.83;8.83;;;;;;;;;;5073431;28;20419;-62
2022/05/09 09:23:45;;;;;;;12.20;9.90;;;;;;;;;;5073485;28;20408;-63
2022/05/09 09:26:11;;;;;;;10.43;9.40;;;;;;;;;;5073335;28;20412;-66
2022/05/09 09:28:46;;;;;;;10.37;9.27;;;;;;;;;;5055430;28;20443;-72
2022/05/09 09:31:13;;;;;;;10.80;9.10;;;;;;;;;;5073286;28;20392;-64
2022/05/09 09:33:41;;;;;;;10.30;9.30;;;;;;;;;;5073186;28;20894;-67
2022/05/09 09:36:14;;;;;;;10.47;8.90;;;;;;;;;;5072835;28;20492;-62
2022/05/09 09:38:54;;;;;;;10.10;9.20;;;;;;;;;;5073306;28;20407;-64
2022/05/09 09:41:31;;;;;;;11.43;9.70;;;;;;;;;;5073302;28;20397;-68
2022/05/09 09:44:17;;;;;;;10.63;9.33;;;;;;;;;;5055293;28;20496;-63
2022/05/09 09:47:02;;;;;;;10.63;9.37;;;;;;;;;;5072840;28;20408;-71
2022/05/09 09:49:28;;;;;;;11.83;9.13;;;;;;;;;;5054917;28;20984;-67
2022/05/09 09:51:54;;;;;;;10.20;9.20;;;;;;;;;;5072978;28;20404;-66
2022/05/09 09:54:26;;;;;;;10.30;9.40;;;;;;;;;;5072949;28;20389;-63
2022/05/09 09:56:52;;;;;;;13.73;9.67;;;;;;;;;;5072849;28;20547;-62
2022/05/09 09:59:21;;;;;;;14.77;10.53;;;;;;;;;;5072810;28;20562;-62
2022/05/09 10:02:06;;;;;;;12.33;9.07;;;;;;;;;;5072918;28;20420;-66
2022/05/09 10:04:33;;;;;;;10.27;9.27;;;;;;;;;;5054840;28;20888;-62
2022/05/09 10:07:10;;;;;;;9.90;9.00;;;;;;;;;;5072561;28;20456;-68
2022/05/09 10:09:39;;;;;;;15.23;9.73;;;;;;;;;;5072751;28;20547;-71
2022/05/09 10:12:19;;;;;;;9.90;8.90;;;;;;;;;;5072788;28;20985;-64
2022/05/09 10:14:45;;;;;;;12.23;9.50;;;;;;;;;;5072437;28;20413;-72
2022/05/09 10:17:20;;;;;;;11.30;10.07;;;;;;;;;;5072932;28;20397;-65
2022/05/09 10:19:47;;;;;;;9.60;8.70;;;;;;;;;;5076554;28;20423;-72
2022/05/09 10:25:13;;;;;;;9.50;8.60;;;;;;;;;;5047411;28;20416;-63
2022/05/09 10:27:39;;;;;;;8.70;7.60;;;;;;;;;;5076401;28;20477;-62
2022/05/09 10:30:08;;;;;;;9.40;8.50;;;;;;;;;;5076308;28;20412;-70
2022/05/09 10:32:37;;;;;;;8.67;7.87;;;;;;;;;;5076270;28;20413;-63
2022/05/09 10:35:06;;;;;;;8.73;7.90;;;;;;;;;;5057977;28;20460;-74
2022/05/09 10:37:49;;;;;;;8.67;7.53;;;;;;;;;;5076214;28;20408;-66
2022/05/09 10:40:22;;;;;;;8.20;7.60;;;;;;;;;;5076021;28;20517;-62
2022/05/09 10:42:53;;;;;;;8.70;7.87;;;;;;;;;;5076192;28;20453;-63
2022/05/09 10:45:21;;;;;;;8.30;7.60;;;;;;;;;;5057863;28;20427;-63
2022/05/09 10:47:53;;;;;;;7.87;7.17;;;;;;;;;;5076142;28;20494;-71
2022/05/09 10:50:28;;;;;;;9.33;8.10;;;;;;;;;;5058085;28;20479;-72
2022/05/09 10:52:55;;;;;;;11.10;9.07;;;;;;;;;;5075967;28;20408;-64
2022/05/09 10:55:37;;;;;;;8.77;7.77;;;;;;;;;;5075761;28;20566;-63
2022/05/09 10:58:06;;;;;;;8.20;7.53;;;;;;;;;;5075947;28;20428;-62
2022/05/09 11:00:33;;;;;;;7.70;7.10;;;;;;;;;;5075908;28;20412;-64
2022/05/09 11:03:12;;;;;;;8.90;7.60;;;;;;;;;;5075751;28;20924;-63
2022/05/09 11:05:57;;;;;;;9.13;8.33;;;;;;;;;;5057618;28;20404;-64
2022/05/09 11:08:23;;;;;;;8.50;7.70;;;;;;;;;;5075451;28;20483;-64
2022/05/09 11:10:55;;;;;;;8.30;7.60;;;;;;;;;;5075471;28;20416;-70
2022/05/09 11:13:21;;;;;;;6.90;6.40;;;;;;;;;;5075357;28;20423;-63
2022/05/09 11:15:47;;;;;;;8.60;7.80;;;;;;;;;;5075242;28;20466;-67
2022/05/09 11:18:39;;;;;;;9.47;8.77;;;;;;;;;;5075701;28;20409;-64
2022/05/09 11:21:11;;;;;;;8.97;8.27;;;;;;;;;;5027430;28;20507;-64
2022/05/09 11:23:37;;;;;;;9.23;8.33;;;;;;;;;;5075440;28;20417;-62
2022/05/09 11:26:22;;;;;;;9.90;9.03;;;;;;;;;;5075216;28;20397;-64
2022/05/09 11:28:57;;;;;;;9.17;8.27;;;;;;;;;;5075213;28;20431;-63
2022/05/09 11:31:38;;;;;;;9.80;8.83;;;;;;;;;;5075333;28;20408;-63
2022/05/09 11:34:23;;;;;;;9.30;8.50;;;;;;;;;;5075100;28;20397;-66
2022/05/09 11:37:24;;;;;;;8.17;7.40;;;;;;;;;;5074940;28;20472;-63
2022/05/09 11:39:50;;;;;;;7.40;6.60;;;;;;;;;;4993766;28;20426;-69
2022/05/09 11:45:07;;;;;;;7.33;6.73;;;;;;;;;;5075101;28;20473;-63
2022/05/09 11:47:56;;;;;;;11.00;7.70;;;;;;;;;;5074926;28;20489;-69
2022/05/09 11:50:28;;;;;;;7.40;6.70;;;;;;;;;;5074626;28;20413;-64
2022/05/09 11:52:55;;;;;;;7.33;6.50;;;;;;;;;;5075064;28;20462;-63
2022/05/09 11:55:22;;;;;;;8.00;7.20;;;;;;;;;;5074402;28;20488;-63
2022/05/09 11:57:53;;;;;;;9.50;8.60;;;;;;;;;;5074656;28;20433;-63
2022/05/09 12:00:26;;;;;;;7.40;6.63;;;;;;;;;;5074882;28;20941;-63
2022/05/09 12:02:54;;;;;;;8.23;7.63;;;;;;;;;;5074780;28;20440;-63
2022/05/09 12:05:26;;;;;;;7.97;7.17;;;;;;;;;;5074688;28;20759;-64
2022/05/09 12:07:56;;;;;;;8.50;7.70;;;;;;;;;;5074515;28;20461;-63
2022/05/09 12:10:28;;;;;;;7.77;7.10;;;;;;;;;;5074671;28;20431;-65
2022/05/09 12:12:56;;;;;;;7.40;6.80;;;;;;;;;;5074445;28;20446;-66
2022/05/09 12:15:22;;;;;;;7.50;6.80;;;;;;;;;;5074241;28;20526;-69
2022/05/09 12:17:53;;;;;;;7.47;6.70;;;;;;;;;;5074455;28;20409;-64
2022/05/09 12:20:26;;;;;;;7.47;6.93;;;;;;;;;;5074465;28;20404;-64
2022/05/09 12:22:53;;;;;;;7.27;6.57;;;;;;;;;;5056481;28;20516;-63
2022/05/09 12:25:34;;;;;;;7.33;6.73;;;;;;;;;;5074296;28;20405;-68
2022/05/09 12:28:09;;;;;;;7.93;7.13;;;;;;;;;;5056304;28;20782;-63
2022/05/09 12:30:46;;;;;;;7.50;6.80;;;;;;;;;;5074116;28;20947;-64
2022/05/09 12:33:25;;;;;;;7.43;6.70;;;;;;;;;;5074151;28;20400;-71
2022/05/09 12:35:53;;;;;;;7.70;7.00;;;;;;;;;;5073762;28;20476;-63
2022/05/09 12:38:31;;;;;;;8.30;7.60;;;;;;;;;;5073929;28;20455;-63
2022/05/09 12:41:02;;;;;;;8.37;7.47;;;;;;;;;;5073506;28;20416;-63
2022/05/09 12:43:30;;;;;;;7.77;7.07;;;;;;;;;;5074063;28;20484;-68
2022/05/09 12:45:56;;;;;;;7.97;7.13;;;;;;;;;;5073946;28;20417;-63
2022/05/09 12:48:22;;;;;;;9.03;7.07;;;;;;;;;;5073836;28;20416;-65
2022/05/09 12:50:48;;;;;;;7.87;7.27;;;;;;;;;;5073881;28;20408;-63
2022/05/09 12:53:17;;;;;;;7.50;6.63;;;;;;;;;;5073833;28;20433;-62
2022/05/09 12:55:56;;;;;;;6.93;6.43;;;;;;;;;;5073484;28;20468;-73
2022/05/09 12:58:23;;;;;;;7.93;7.23;;;;;;;;;;5073696;28;20424;-63
2022/05/09 13:00:49;;;;;;;8.50;7.70;;;;;;;;;;5073705;28;20873;-62
2022/05/09 13:03:16;;;;;;;7.07;6.50;;;;;;;;;;5073730;28;20393;-63
2022/05/09 13:05:44;;;;;;;7.43;6.83;;;;;;;;;;5073512;28;20420;-62
2022/05/09 13:08:13;;;;;;;10.77;7.10;;;;;;;;;;5073335;28;20484;-63
2022/05/09 13:10:57;;;;;;;7.27;6.67;;;;;;;;;;5073502;28;20443;-62
2022/05/09 13:13:31;;;;;;;7.17;6.57;;;;;;;;;;5073577;28;20408;-63
2022/05/09 13:15:57;;;;;;;7.90;7.23;;;;;;;;;;5073130;28;20543;-61
2022/05/09 13:18:25;;;;;;;6.83;6.33;;;;;;;;;;5055425;28;20408;-62
2022/05/09 13:21:03;;;;;;;7.50;6.87;;;;;;;;;;5073368;28;20436;-62
2022/05/09 13:23:50;;;;;;;8.10;7.40;;;;;;;;;;5073463;28;20410;-65
2022/05/09 13:26:18;;;;;;;7.53;7.00;;;;;;;;;;5073454;28;20409;-63
2022/05/09 13:28:49;;;;;;;7.83;7.13;;;;;;;;;;5073343;28;20433;-71
2022/05/09 13:31:33;;;;;;;8.00;7.13;;;;;;;;;;5073162;28;20906;-63
2022/05/09 13:34:00;;;;;;;6.70;6.20;;;;;;;;;;5073168;28;20488;-62
2022/05/09 13:36:28;;;;;;;7.53;6.93;;;;;;;;;;5072950;28;21123;-64
2022/05/09 13:38:54;;;;;;;7.53;6.83;;;;;;;;;;5073166;28;20507;-63
2022/05/09 13:41:24;;;;;;;7.30;6.70;;;;;;;;;;5073000;28;20456;-63
2022/05/09 13:43:51;;;;;;;8.67;7.40;;;;;;;;;;5073057;28;20969;-62
2022/05/09 13:46:17;;;;;;;8.10;7.30;;;;;;;;;;5072971;28;20417;-62
2022/05/09 13:48:43;;;;;;;7.20;6.70;;;;;;;;;;5055047;28;20416;-62
2022/05/09 13:51:10;;;;;;;6.87;6.47;;;;;;;;;;5072939;28;20413;-62
2022/05/09 13:53:37;;;;;;;11.47;7.37;;;;;;;;;;5054197;28;20962;-62
2022/05/09 13:56:07;;;;;;;7.87;7.17;;;;;;;;;;5072748;28;20498;-69
2022/05/09 13:58:34;;;;;;;7.83;7.03;;;;;;;;;;5072997;28;20508;-65
2022/05/09 14:01:01;;;;;;;7.77;7.03;;;;;;;;;;5072870;28;20450;-72
2022/05/09 14:03:29;;;;;;;7.80;7.20;;;;;;;;;;5072917;28;20404;-65
2022/05/09 14:05:57;;;;;;;7.47;6.83;;;;;;;;;;5072827;28;20424;-63
2022/05/09 14:08:24;;;;;;;7.40;6.70;;;;;;;;;;5072689;28;20472;-62
2022/05/09 14:10:51;;;;;;;6.77;6.37;;;;;;;;;;5072811;28;20476;-62
2022/05/09 14:13:23;;;;;;;7.30;6.20;;;;;;;;;;5072968;28;20423;-61
2022/05/09 14:15:53;;;;;;;7.60;7.00;;;;;;;;;;5072526;28;20460;-62
2022/05/09 14:18:19;;;;;;;7.13;6.53;;;;;;;;;;5072629;28;20436;-63
2022/05/09 14:20:46;;;;;;;7.30;6.70;;;;;;;;;;5072602;28;20401;-63
2022/05/09 14:23:17;;;;;;;7.00;6.30;;;;;;;;;;5072793;28;20417;-63
2022/05/09 14:31:33;;;;;;;7.57;6.97;;;;;;;;;;5072775;28;20485;-64
2022/05/09 14:33:59;;;;;;;8.30;7.60;;;;;;;;;;5072528;28;20492;-63
2022/05/09 14:36:30;;;;;;;7.70;6.93;;;;;;;;;;5054378;28;20539;-62
2022/05/09 14:38:57;;;;;;;7.37;6.80;;;;;;;;;;5072633;28;20414;-65
2022/05/09 14:41:41;;;;;;;7.57;6.87;;;;;;;;;;5072608;28;20401;-63
2022/05/09 14:44:26;;;;;;;7.27;6.67;;;;;;;;;;5072467;28;20761;-63
2022/05/09 14:47:11;;;;;;;7.30;6.60;;;;;;;;;;5072373;28;20405;-67
2022/05/09 14:49:42;;;;;;;7.33;6.73;;;;;;;;;;5072444;28;20409;-73
2022/05/09 14:52:18;;;;;;;6.87;6.27;;;;;;;;;;5072514;28;20409;-66
2022/05/09 14:57:25;;;;;;;7.50;6.90;;;;;;;;;;5072351;28;21301;-69
2022/05/09 14:57:38;;;;;;;6.83;6.33;;;;;;;;;;5072264;28;20523;-64
2022/05/09 15:00:06;;;;;;;7.07;6.27;;;;;;;;;;5072470;28;20427;-63